sensor_id;sensor_type;location;lat;lon;timestamp;pressure;altitude;pressure_sealevel;temperature;humidity
64683;BME280;51107;47.652;19.016;2022-07-21T00:02:10;100058.81;;;23.17;42.99
64683;BME280;51107;47.652;19.016;2022-07-21T00:04:38;100058.88;;;23.11;42.12
64683;BME280;51107;47.652;19.016;2022-07-21T00:07:07;100058.13;;;23.22;42.74
64683;BME280;51107;47.652;19.016;2022-07-21T00:09:35;100057.03;;;23.11;41.80
64683;BME280;51107;47.652;19.016;2022-07-21T00:12:04;100068.47;;;23.12;42.94
64683;BME280;51107;47.652;19.016;2022-07-21T00:14:32;100067.16;;;23.02;41.49
64683;BME280;51107;47.652;19.016;2022-07-21T00:17:01;100061.34;;;23.12;41.80
64683;BME280;51107;47.652;19.016;2022-07-21T00:19:29;100061.34;;;23.12;41.14
64683;BME280;51107;47.652;19.016;2022-07-21T00:21:58;100060.22;;;23.32;41.01
64683;BME280;51107;47.652;19.016;2022-07-21T00:24:26;100065.78;;;23.30;41.85
64683;BME280;51107;47.652;19.016;2022-07-21T00:26:54;100053.03;;;23.20;41.04
64683;BME280;51107;47.652;19.016;2022-07-21T00:29:23;100078.59;;;23.33;40.98
64683;BME280;51107;47.652;19.016;2022-07-21T00:31:51;100072.25;;;23.34;41.79
64683;BME280;51107;47.652;19.016;2022-07-21T00:34:19;100078.97;;;23.37;41.86
64683;BME280;51107;47.652;19.016;2022-07-21T00:36:47;100075.19;;;23.45;41.42
64683;BME280;51107;47.652;19.016;2022-07-21T00:39:15;100072.84;;;23.36;41.33
64683;BME280;51107;47.652;19.016;2022-07-21T00:41:44;100078.91;;;22.95;42.71
64683;BME280;51107;47.652;19.016;2022-07-21T00:44:20;100085.16;;;22.70;43.95
64683;BME280;51107;47.652;19.016;2022-07-21T00:46:49;100083.81;;;22.79;43.86
64683;BME280;51107;47.652;19.016;2022-07-21T00:49:19;100084.87;;;22.60;44.60
64683;BME280;51107;47.652;19.016;2022-07-21T00:51:48;100088.44;;;22.28;45.96
64683;BME280;51107;47.652;19.016;2022-07-21T00:54:18;100092.53;;;22.49;45.29
64683;BME280;51107;47.652;19.016;2022-07-21T00:56:47;100084.44;;;22.63;45.13
64683;BME280;51107;47.652;19.016;2022-07-21T00:59:15;100080.38;;;22.42;45.76
64683;BME280;51107;47.652;19.016;2022-07-21T01:01:44;100085.63;;;22.23;46.71
64683;BME280;51107;47.652;19.016;2022-07-21T01:04:13;100093.06;;;22.14;47.43
64683;BME280;51107;47.652;19.016;2022-07-21T01:06:41;100084.56;;;22.31;46.69
64683;BME280;51107;47.652;19.016;2022-07-21T01:09:09;100087.38;;;22.11;47.67
64683;BME280;51107;47.652;19.016;2022-07-21T01:11:39;100092.81;;;21.72;48.19
64683;BME280;51107;47.652;19.016;2022-07-21T01:14:07;100085.91;;;21.39;48.38
64683;BME280;51107;47.652;19.016;2022-07-21T01:16:36;100092.63;;;21.03;49.13
64683;BME280;51107;47.652;19.016;2022-07-21T01:19:06;100088.97;;;21.36;48.91
64683;BME280;51107;47.652;19.016;2022-07-21T01:21:36;100086.59;;;21.60;48.04
64683;BME280;51107;47.652;19.016;2022-07-21T01:24:06;100083.59;;;21.56;48.28
64683;BME280;51107;47.652;19.016;2022-07-21T01:26:48;100083.91;;;21.66;47.51
64683;BME280;51107;47.652;19.016;2022-07-21T01:29:17;100083.81;;;21.80;47.36
64683;BME280;51107;47.652;19.016;2022-07-21T01:31:47;100084.37;;;21.82;47.66
64683;BME280;51107;47.652;19.016;2022-07-21T01:34:16;100078.16;;;21.95;48.15
64683;BME280;51107;47.652;19.016;2022-07-21T01:36:47;100091.31;;;21.83;48.24
64683;BME280;51107;47.652;19.016;2022-07-21T01:39:15;100084.37;;;21.82;48.82
64683;BME280;51107;47.652;19.016;2022-07-21T01:42:02;100080.66;;;21.32;49.53
64683;BME280;51107;47.652;19.016;2022-07-21T01:44:33;100090.09;;;21.21;48.92
64683;BME280;51107;47.652;19.016;2022-07-21T01:47:01;100083.22;;;21.14;49.42
64683;BME280;51107;47.652;19.016;2022-07-21T01:49:30;100077.91;;;21.14;49.70
64683;BME280;51107;47.652;19.016;2022-07-21T01:51:58;100080.50;;;21.27;48.70
64683;BME280;51107;47.652;19.016;2022-07-21T01:54:28;100077.84;;;21.27;48.93
64683;BME280;51107;47.652;19.016;2022-07-21T01:56:56;100083.28;;;21.00;49.77
64683;BME280;51107;47.652;19.016;2022-07-21T01:59:24;100085.38;;;21.24;49.51
64683;BME280;51107;47.652;19.016;2022-07-21T02:01:53;100086.41;;;21.23;49.55
64683;BME280;51107;47.652;19.016;2022-07-21T02:04:21;100085.19;;;21.25;49.67
64683;BME280;51107;47.652;19.016;2022-07-21T02:06:50;100087.25;;;21.23;49.39
64683;BME280;51107;47.652;19.016;2022-07-21T02:09:18;100079.03;;;21.31;48.25
64683;BME280;51107;47.652;19.016;2022-07-21T02:11:47;100081.66;;;21.38;47.95
64683;BME280;51107;47.652;19.016;2022-07-21T02:14:15;100074.16;;;21.28;48.78
64683;BME280;51107;47.652;19.016;2022-07-21T02:16:43;100070.91;;;21.26;48.78
64683;BME280;51107;47.652;19.016;2022-07-21T02:19:12;100078.84;;;20.94;49.60
64683;BME280;51107;47.652;19.016;2022-07-21T02:21:40;100085.38;;;20.85;49.50
64683;BME280;51107;47.652;19.016;2022-07-21T02:24:08;100085.75;;;20.95;48.41
64683;BME280;51107;47.652;19.016;2022-07-21T02:26:36;100094.97;;;21.25;46.89
64683;BME280;51107;47.652;19.016;2022-07-21T02:29:05;100094.19;;;21.49;46.08
64683;BME280;51107;47.652;19.016;2022-07-21T02:31:33;100089.41;;;21.65;46.41
64683;BME280;51107;47.652;19.016;2022-07-21T02:34:01;100087.81;;;21.89;45.40
64683;BME280;51107;47.652;19.016;2022-07-21T02:36:29;100091.59;;;22.00;45.00
64683;BME280;51107;47.652;19.016;2022-07-21T02:38:58;100087.84;;;22.08;45.43
64683;BME280;51107;47.652;19.016;2022-07-21T02:41:26;100087.38;;;22.11;45.26
64683;BME280;51107;47.652;19.016;2022-07-21T02:43:55;100092.28;;;22.14;44.91
64683;BME280;51107;47.652;19.016;2022-07-21T02:46:23;100093.38;;;21.81;47.32
64683;BME280;51107;47.652;19.016;2022-07-21T02:48:52;100080.94;;;21.81;46.86
64683;BME280;51107;47.652;19.016;2022-07-21T02:51:21;100086.69;;;21.53;47.58
64683;BME280;51107;47.652;19.016;2022-07-21T02:53:50;100084.59;;;21.55;46.86
64683;BME280;51107;47.652;19.016;2022-07-21T02:56:19;100076.44;;;21.50;47.27
64683;BME280;51107;47.652;19.016;2022-07-21T02:58:47;100082.19;;;21.47;47.17
64683;BME280;51107;47.652;19.016;2022-07-21T03:01:15;100086.91;;;21.45;47.58
64683;BME280;51107;47.652;19.016;2022-07-21T03:03:48;100083.38;;;21.51;47.49
64683;BME280;51107;47.652;19.016;2022-07-21T03:06:16;100080.44;;;21.34;48.37
64683;BME280;51107;47.652;19.016;2022-07-21T03:08:44;100084.37;;;21.57;46.53
64683;BME280;51107;47.652;19.016;2022-07-21T03:11:13;100083.09;;;21.66;46.59
64683;BME280;51107;47.652;19.016;2022-07-21T03:13:41;100080.13;;;21.81;46.39
64683;BME280;51107;47.652;19.016;2022-07-21T03:16:09;100080.41;;;21.73;48.31
64683;BME280;51107;47.652;19.016;2022-07-21T03:18:38;100076.00;;;21.60;48.24
64683;BME280;51107;47.652;19.016;2022-07-21T03:33:03;100082.13;;;21.60;50.33
64683;BME280;51107;47.652;19.016;2022-07-21T03:35:32;100090.72;;;21.55;50.02
64683;BME280;51107;47.652;19.016;2022-07-21T03:38:00;100090.72;;;21.55;49.01
64683;BME280;51107;47.652;19.016;2022-07-21T03:40:33;100085.91;;;21.39;51.11
64683;BME280;51107;47.652;19.016;2022-07-21T03:43:04;100087.19;;;21.30;53.00
64683;BME280;51107;47.652;19.016;2022-07-21T03:45:34;100088.81;;;21.31;53.21
64683;BME280;51107;47.652;19.016;2022-07-21T03:48:04;100085.59;;;21.22;55.26
64683;BME280;51107;47.652;19.016;2022-07-21T03:50:35;100079.06;;;21.25;54.94
64683;BME280;51107;47.652;19.016;2022-07-21T03:53:05;100087.97;;;21.37;53.75
64683;BME280;51107;47.652;19.016;2022-07-21T03:55:34;100091.63;;;21.36;51.92
64683;BME280;51107;47.652;19.016;2022-07-21T03:58:04;100082.81;;;21.49;51.52
64683;BME280;51107;47.652;19.016;2022-07-21T04:00:37;100095.91;;;21.37;54.60
64683;BME280;51107;47.652;19.016;2022-07-21T04:03:06;100108.91;;;21.45;55.61
64683;BME280;51107;47.652;19.016;2022-07-21T04:05:35;100104.66;;;21.37;54.50
64683;BME280;51107;47.652;19.016;2022-07-21T04:08:05;100103.59;;;21.45;53.42
64683;BME280;51107;47.652;19.016;2022-07-21T04:10:35;100109.88;;;21.58;53.19
64683;BME280;51107;47.652;19.016;2022-07-21T04:13:06;100101.22;;;21.69;51.56
64683;BME280;51107;47.652;19.016;2022-07-21T04:15:36;100106.44;;;21.82;51.98
64683;BME280;51107;47.652;19.016;2022-07-21T04:18:06;100104.63;;;21.76;51.60
64683;BME280;51107;47.652;19.016;2022-07-21T04:20:36;100104.00;;;21.81;50.38
64683;BME280;51107;47.652;19.016;2022-07-21T04:23:04;100103.59;;;21.77;52.62
64683;BME280;51107;47.652;19.016;2022-07-21T04:25:33;100098.25;;;21.84;54.10
64683;BME280;51107;47.652;19.016;2022-07-21T04:28:02;100097.53;;;21.95;53.92
64683;BME280;51107;47.652;19.016;2022-07-21T04:30:30;100100.41;;;21.94;52.32
64683;BME280;51107;47.652;19.016;2022-07-21T04:32:58;100099.47;;;22.06;51.63
64683;BME280;51107;47.652;19.016;2022-07-21T04:35:27;100105.78;;;22.12;52.65
64683;BME280;51107;47.652;19.016;2022-07-21T04:37:55;100107.31;;;22.20;52.31
64683;BME280;51107;47.652;19.016;2022-07-21T04:40:23;100108.47;;;22.05;52.08
64683;BME280;51107;47.652;19.016;2022-07-21T04:42:52;100111.06;;;22.12;51.77
64683;BME280;51107;47.652;19.016;2022-07-21T04:45:20;100110.56;;;21.97;51.72
64683;BME280;51107;47.652;19.016;2022-07-21T04:47:51;100110.69;;;22.09;51.52
64683;BME280;51107;47.652;19.016;2022-07-21T04:50:25;100100.38;;;22.19;51.04
64683;BME280;51107;47.652;19.016;2022-07-21T04:52:54;100108.94;;;22.21;51.96
64683;BME280;51107;47.652;19.016;2022-07-21T04:55:23;100105.41;;;22.27;51.01
64683;BME280;51107;47.652;19.016;2022-07-21T04:57:52;100116.59;;;22.36;52.56
64683;BME280;51107;47.652;19.016;2022-07-21T05:00:23;100115.63;;;22.49;52.57
64683;BME280;51107;47.652;19.016;2022-07-21T05:02:53;100106.78;;;22.55;51.23
64683;BME280;51107;47.652;19.016;2022-07-21T05:05:21;100108.31;;;22.63;51.31
64683;BME280;51107;47.652;19.016;2022-07-21T05:07:51;100107.94;;;22.78;51.16
64683;BME280;51107;47.652;19.016;2022-07-21T05:10:19;100114.28;;;22.77;50.66
64683;BME280;51107;47.652;19.016;2022-07-21T05:12:49;100111.94;;;22.87;50.53
64683;BME280;51107;47.652;19.016;2022-07-21T05:15:18;100117.72;;;22.96;51.12
64683;BME280;51107;47.652;19.016;2022-07-21T05:17:46;100115.37;;;23.06;51.45
64683;BME280;51107;47.652;19.016;2022-07-21T05:20:15;100118.31;;;23.16;52.87
64683;BME280;51107;47.652;19.016;2022-07-21T05:22:43;100119.34;;;23.15;53.13
64683;BME280;51107;47.652;19.016;2022-07-21T05:25:11;100125.25;;;23.17;52.35
64683;BME280;51107;47.652;19.016;2022-07-21T05:27:40;100126.19;;;23.23;52.20
64683;BME280;51107;47.652;19.016;2022-07-21T05:30:09;100121.63;;;23.12;52.57
64683;BME280;51107;47.652;19.016;2022-07-21T05:32:37;100121.59;;;23.30;52.32
64683;BME280;51107;47.652;19.016;2022-07-21T05:35:15;100125.69;;;23.45;51.09
64683;BME280;51107;47.652;19.016;2022-07-21T05:37:44;100133.03;;;23.61;50.48
64683;BME280;51107;47.652;19.016;2022-07-21T05:40:14;100124.72;;;23.69;49.89
64683;BME280;51107;47.652;19.016;2022-07-21T05:42:43;100135.94;;;23.83;50.00
64683;BME280;51107;47.652;19.016;2022-07-21T05:45:12;100133.31;;;23.95;50.96
64683;BME280;51107;47.652;19.016;2022-07-21T05:47:41;100141.56;;;24.05;52.15
64683;BME280;51107;47.652;19.016;2022-07-21T05:50:10;100141.53;;;24.17;51.69
64683;BME280;51107;47.652;19.016;2022-07-21T05:52:38;100136.47;;;24.28;53.53
64683;BME280;51107;47.652;19.016;2022-07-21T05:55:07;100144.44;;;24.39;52.13
64683;BME280;51107;47.652;19.016;2022-07-21T05:57:37;100144.19;;;24.53;53.33
64683;BME280;51107;47.652;19.016;2022-07-21T06:00:15;100140.16;;;24.62;52.97
64683;BME280;51107;47.652;19.016;2022-07-21T06:02:45;100144.16;;;24.76;51.11
64683;BME280;51107;47.652;19.016;2022-07-21T06:05:13;100140.09;;;24.86;52.60
64683;BME280;51107;47.652;19.016;2022-07-21T06:07:42;100136.81;;;24.96;51.95
64683;BME280;51107;47.652;19.016;2022-07-21T06:10:10;100141.63;;;25.10;50.05
64683;BME280;51107;47.652;19.016;2022-07-21T06:12:43;100132.75;;;25.22;51.32
64683;BME280;51107;47.652;19.016;2022-07-21T06:15:13;100130.88;;;25.34;50.24
64683;BME280;51107;47.652;19.016;2022-07-21T06:17:42;100145.06;;;25.52;50.57
64683;BME280;51107;47.652;19.016;2022-07-21T06:20:12;100142.66;;;25.67;50.17
64683;BME280;51107;47.652;19.016;2022-07-21T06:22:41;100139.91;;;25.79;49.77
64683;BME280;51107;47.652;19.016;2022-07-21T06:25:10;100136.59;;;25.89;48.53
64683;BME280;51107;47.652;19.016;2022-07-21T06:27:38;100135.94;;;25.99;47.41
64683;BME280;51107;47.652;19.016;2022-07-21T06:30:07;100132.72;;;26.14;47.16
64683;BME280;51107;47.652;19.016;2022-07-21T06:32:36;100124.81;;;26.41;46.69
64683;BME280;51107;47.652;19.016;2022-07-21T06:35:04;100127.34;;;26.53;45.66
64683;BME280;51107;47.652;19.016;2022-07-21T06:37:33;100130.88;;;26.58;43.40
64683;BME280;51107;47.652;19.016;2022-07-21T06:40:02;100134.66;;;26.80;42.06
64683;BME280;51107;47.652;19.016;2022-07-21T06:42:31;100132.22;;;27.00;42.11
64683;BME280;51107;47.652;19.016;2022-07-21T06:44:59;100134.59;;;27.24;40.47
64683;BME280;51107;47.652;19.016;2022-07-21T06:47:29;100128.19;;;27.25;42.42
64683;BME280;51107;47.652;19.016;2022-07-21T06:49:57;100134.50;;;27.36;42.48
64683;BME280;51107;47.652;19.016;2022-07-21T06:52:34;100135.97;;;27.54;40.42
64683;BME280;51107;47.652;19.016;2022-07-21T06:55:07;100132.47;;;27.86;37.58
64683;BME280;51107;47.652;19.016;2022-07-21T06:57:36;100135.44;;;27.89;38.34
64683;BME280;51107;47.652;19.016;2022-07-21T07:00:05;100131.38;;;28.19;37.29
64683;BME280;51107;47.652;19.016;2022-07-21T07:02:34;100131.44;;;28.29;37.35
64683;BME280;51107;47.652;19.016;2022-07-21T07:05:03;100132.97;;;28.63;35.71
64683;BME280;51107;47.652;19.016;2022-07-21T07:07:34;100133.81;;;28.84;36.84
64683;BME280;51107;47.652;19.016;2022-07-21T07:10:04;100133.88;;;29.05;34.35
64683;BME280;51107;47.652;19.016;2022-07-21T07:12:33;100141.16;;;29.09;34.50
64683;BME280;51107;47.652;19.016;2022-07-21T07:15:22;100128.59;;;29.25;35.51
64683;BME280;51107;47.652;19.016;2022-07-21T07:17:52;100141.75;;;29.78;36.00
64683;BME280;51107;47.652;19.016;2022-07-21T07:20:21;100132.53;;;30.36;33.45
64683;BME280;51107;47.652;19.016;2022-07-21T07:22:50;100135.44;;;30.55;33.74
64683;BME280;51107;47.652;19.016;2022-07-21T07:25:18;100136.75;;;30.68;32.71
64683;BME280;51107;47.652;19.016;2022-07-21T07:27:58;100135.50;;;31.05;33.97
64683;BME280;51107;47.652;19.016;2022-07-21T07:30:27;100137.31;;;31.49;32.76
64683;BME280;51107;47.652;19.016;2022-07-21T07:32:55;100128.03;;;31.71;30.62
64683;BME280;51107;47.652;19.016;2022-07-21T07:35:24;100135.75;;;31.78;31.53
64683;BME280;51107;47.652;19.016;2022-07-21T07:37:52;100137.88;;;32.10;29.39
64683;BME280;51107;47.652;19.016;2022-07-21T07:40:21;100131.97;;;32.08;30.58
64683;BME280;51107;47.652;19.016;2022-07-21T07:42:51;100131.09;;;32.61;29.29
64683;BME280;51107;47.652;19.016;2022-07-21T07:45:19;100127.03;;;32.40;29.96
64683;BME280;51107;47.652;19.016;2022-07-21T07:47:48;100129.19;;;32.62;28.39
64683;BME280;51107;47.652;19.016;2022-07-21T07:50:16;100123.34;;;32.98;28.79
64683;BME280;51107;47.652;19.016;2022-07-21T07:52:45;100125.00;;;33.32;29.80
64683;BME280;51107;47.652;19.016;2022-07-21T07:55:13;100126.19;;;33.26;27.02
64683;BME280;51107;47.652;19.016;2022-07-21T07:57:42;100120.50;;;33.08;28.02
64683;BME280;51107;47.652;19.016;2022-07-21T08:00:14;100127.09;;;34.15;26.97
64683;BME280;51107;47.652;19.016;2022-07-21T08:03:03;100120.69;;;34.25;28.44
64683;BME280;51107;47.652;19.016;2022-07-21T08:05:31;100115.59;;;34.23;26.55
64683;BME280;51107;47.652;19.016;2022-07-21T08:07:59;100114.06;;;34.45;26.72
64683;BME280;51107;47.652;19.016;2022-07-21T08:10:28;100112.84;;;34.65;26.85
64683;BME280;51107;47.652;19.016;2022-07-21T08:13:14;100115.75;;;35.28;26.96
64683;BME280;51107;47.652;19.016;2022-07-21T08:15:44;100119.47;;;35.32;27.86
64683;BME280;51107;47.652;19.016;2022-07-21T08:18:14;100116.31;;;34.79;27.42
64683;BME280;51107;47.652;19.016;2022-07-21T08:20:44;100113.97;;;36.00;25.26
64683;BME280;51107;47.652;19.016;2022-07-21T08:23:13;100119.38;;;35.23;26.70
64683;BME280;51107;47.652;19.016;2022-07-21T08:25:42;100107.66;;;35.82;26.12
64683;BME280;51107;47.652;19.016;2022-07-21T08:28:11;100110.72;;;35.12;26.28
64683;BME280;51107;47.652;19.016;2022-07-21T08:30:39;100111.37;;;35.18;27.63
64683;BME280;51107;47.652;19.016;2022-07-21T08:33:08;100097.28;;;35.07;25.18
64683;BME280;51107;47.652;19.016;2022-07-21T08:35:36;100098.28;;;35.11;26.95
64683;BME280;51107;47.652;19.016;2022-07-21T08:38:07;100100.34;;;34.92;25.90
64683;BME280;51107;47.652;19.016;2022-07-21T08:40:38;100092.84;;;35.57;27.02
64683;BME280;51107;47.652;19.016;2022-07-21T08:43:07;100092.00;;;35.47;24.36
64683;BME280;51107;47.652;19.016;2022-07-21T08:45:37;100094.09;;;36.31;25.85
64683;BME280;51107;47.652;19.016;2022-07-21T08:48:06;100088.59;;;35.96;24.15
64683;BME280;51107;47.652;19.016;2022-07-21T08:50:37;100086.03;;;35.99;25.76
64683;BME280;51107;47.652;19.016;2022-07-21T08:53:06;100078.59;;;37.54;23.11
64683;BME280;51107;47.652;19.016;2022-07-21T08:55:37;100087.81;;;36.88;24.30
64683;BME280;51107;47.652;19.016;2022-07-21T08:58:10;100085.22;;;37.74;23.60
64683;BME280;51107;47.652;19.016;2022-07-21T09:00:44;100081.72;;;37.65;21.67
64683;BME280;51107;47.652;19.016;2022-07-21T09:03:19;100077.06;;;37.09;22.52
64683;BME280;51107;47.652;19.016;2022-07-21T09:06:20;100074.34;;;36.39;24.26
64683;BME280;51107;47.652;19.016;2022-07-21T09:08:51;100069.72;;;37.10;23.58
64683;BME280;51107;47.652;19.016;2022-07-21T09:11:22;100081.09;;;36.77;24.16
64683;BME280;51107;47.652;19.016;2022-07-21T09:14:13;100075.16;;;36.75;24.51
64683;BME280;51107;47.652;19.016;2022-07-21T09:16:44;100069.62;;;36.80;23.98
64683;BME280;51107;47.652;19.016;2022-07-21T09:19:20;100066.12;;;36.04;24.36
64683;BME280;51107;47.652;19.016;2022-07-21T09:21:50;100061.28;;;36.41;26.17
64683;BME280;51107;47.652;19.016;2022-07-21T09:24:27;100062.50;;;37.31;23.44
64683;BME280;51107;47.652;19.016;2022-07-21T09:27:10;100056.66;;;36.94;22.91
64683;BME280;51107;47.652;19.016;2022-07-21T09:29:40;100054.88;;;36.72;24.79
64683;BME280;51107;47.652;19.016;2022-07-21T09:32:29;100056.75;;;37.71;24.00
64683;BME280;51107;47.652;19.016;2022-07-21T09:35:02;100051.84;;;38.03;22.84
64683;BME280;51107;47.652;19.016;2022-07-21T09:37:35;100045.94;;;36.36;23.19
64683;BME280;51107;47.652;19.016;2022-07-21T09:40:06;100050.91;;;36.78;23.48
64683;BME280;51107;47.652;19.016;2022-07-21T09:42:41;100044.53;;;36.74;24.66
64683;BME280;51107;47.652;19.016;2022-07-21T09:45:13;100029.94;;;37.22;26.02
64683;BME280;51107;47.652;19.016;2022-07-21T09:47:42;100036.53;;;36.95;22.89
64683;BME280;51107;47.652;19.016;2022-07-21T09:50:13;100031.13;;;36.43;22.74
64683;BME280;51107;47.652;19.016;2022-07-21T09:52:55;100031.53;;;37.32;22.33
64683;BME280;51107;47.652;19.016;2022-07-21T09:55:26;100027.66;;;37.81;22.15
64683;BME280;51107;47.652;19.016;2022-07-21T09:57:56;100029.88;;;38.09;23.17
64683;BME280;51107;47.652;19.016;2022-07-21T10:00:27;100031.41;;;38.27;21.32
64683;BME280;51107;47.652;19.016;2022-07-21T10:02:55;100017.53;;;36.95;22.44
64683;BME280;51107;47.652;19.016;2022-07-21T10:05:25;100020.31;;;37.72;24.44
64683;BME280;51107;47.652;19.016;2022-07-21T10:08:02;100016.78;;;38.32;24.10
64683;BME280;51107;47.652;19.016;2022-07-21T10:10:34;100009.97;;;39.14;20.83
64683;BME280;51107;47.652;19.016;2022-07-21T10:13:23;100011.53;;;37.76;21.77
64683;BME280;51107;47.652;19.016;2022-07-21T10:15:52;100014.03;;;36.86;21.75
64683;BME280;51107;47.652;19.016;2022-07-21T10:18:25;100010.94;;;37.61;22.48
64683;BME280;51107;47.652;19.016;2022-07-21T10:21:04;100006.66;;;36.95;22.74
64683;BME280;51107;47.652;19.016;2022-07-21T10:23:41;99999.53;;;37.38;24.67
64683;BME280;51107;47.652;19.016;2022-07-21T10:26:11;100002.50;;;37.54;23.53
64683;BME280;51107;47.652;19.016;2022-07-21T10:28:39;100003.19;;;37.42;23.00
64683;BME280;51107;47.652;19.016;2022-07-21T10:31:14;99989.50;;;37.21;23.57
64683;BME280;51107;47.652;19.016;2022-07-21T10:41:44;99988.91;;;38.89;22.05
64683;BME280;51107;47.652;19.016;2022-07-21T10:49:46;99984.34;;;38.81;18.49
64683;BME280;51107;47.652;19.016;2022-07-21T10:55:17;99978.53;;;38.07;19.46
64683;BME280;51107;47.652;19.016;2022-07-21T10:58:15;99967.56;;;38.79;20.29
64683;BME280;51107;47.652;19.016;2022-07-21T11:00:46;99964.50;;;38.60;22.16
64683;BME280;51107;47.652;19.016;2022-07-21T11:03:27;99968.06;;;39.06;19.51
64683;BME280;51107;47.652;19.016;2022-07-21T11:08:46;99964.44;;;38.68;21.22
64683;BME280;51107;47.652;19.016;2022-07-21T11:11:22;99968.41;;;38.16;20.68
64683;BME280;51107;47.652;19.016;2022-07-21T11:14:16;99960.47;;;38.45;23.26
64683;BME280;51107;47.652;19.016;2022-07-21T11:19:38;99956.69;;;38.25;20.58
64683;BME280;51107;47.652;19.016;2022-07-21T11:22:09;99951.88;;;38.00;23.16
64683;BME280;51107;47.652;19.016;2022-07-21T11:24:40;99951.38;;;37.09;24.58
64683;BME280;51107;47.652;19.016;2022-07-21T11:27:11;99950.00;;;36.76;21.08
64683;BME280;51107;47.652;19.016;2022-07-21T11:29:41;99946.81;;;36.74;23.93
64683;BME280;51107;47.652;19.016;2022-07-21T11:32:12;99945.38;;;36.85;21.51
64683;BME280;51107;47.652;19.016;2022-07-21T11:34:51;99947.16;;;36.72;22.04
64683;BME280;51107;47.652;19.016;2022-07-21T11:40:10;99932.25;;;36.79;21.79
64683;BME280;51107;47.652;19.016;2022-07-21T11:42:42;99945.00;;;37.04;19.83
64683;BME280;51107;47.652;19.016;2022-07-21T11:45:11;99935.50;;;36.81;19.70
64683;BME280;51107;47.652;19.016;2022-07-21T11:47:40;99920.34;;;36.53;20.20
64683;BME280;51107;47.652;19.016;2022-07-21T11:50:16;99920.22;;;36.41;19.57
64683;BME280;51107;47.652;19.016;2022-07-21T11:52:45;99916.38;;;36.33;19.40
64683;BME280;51107;47.652;19.016;2022-07-21T11:55:13;99909.69;;;36.40;21.07
64683;BME280;51107;47.652;19.016;2022-07-21T11:57:45;99907.13;;;36.43;20.79
64683;BME280;51107;47.652;19.016;2022-07-21T12:00:15;99915.06;;;36.66;20.74
64683;BME280;51107;47.652;19.016;2022-07-21T12:02:49;99913.47;;;36.65;21.01
64683;BME280;51107;47.652;19.016;2022-07-21T12:05:18;99905.81;;;36.58;22.30
64683;BME280;51107;47.652;19.016;2022-07-21T12:07:49;99908.06;;;36.47;20.04
64683;BME280;51107;47.652;19.016;2022-07-21T12:10:23;99904.00;;;36.71;18.33
64683;BME280;51107;47.652;19.016;2022-07-21T12:13:01;99900.09;;;36.51;19.24
64683;BME280;51107;47.652;19.016;2022-07-21T12:15:34;99905.50;;;36.42;20.58
64683;BME280;51107;47.652;19.016;2022-07-21T12:18:19;99900.44;;;36.05;21.71
64683;BME280;51107;47.652;19.016;2022-07-21T12:20:48;99903.44;;;36.13;21.28
64683;BME280;51107;47.652;19.016;2022-07-21T12:23:27;99899.47;;;36.36;19.48
64683;BME280;51107;47.652;19.016;2022-07-21T12:25:58;99899.53;;;36.75;19.33
64683;BME280;51107;47.652;19.016;2022-07-21T12:28:45;99899.72;;;36.61;18.89
64683;BME280;51107;47.652;19.016;2022-07-21T12:31:17;99896.59;;;36.15;19.65
64683;BME280;51107;47.652;19.016;2022-07-21T12:33:52;99894.22;;;36.05;19.68
64683;BME280;51107;47.652;19.016;2022-07-21T12:36:43;99888.63;;;36.10;19.39
64683;BME280;51107;47.652;19.016;2022-07-21T12:39:23;99875.06;;;36.10;19.47
64683;BME280;51107;47.652;19.016;2022-07-21T12:42:30;99870.56;;;35.79;18.89
64683;BME280;51107;47.652;19.016;2022-07-21T12:44:59;99875.22;;;36.14;20.67
64683;BME280;51107;47.652;19.016;2022-07-21T12:47:28;99878.22;;;36.30;20.15
64683;BME280;51107;47.652;19.016;2022-07-21T12:52:41;99861.84;;;36.17;18.90
64683;BME280;51107;47.652;19.016;2022-07-21T12:55:09;99863.09;;;36.11;19.25
64683;BME280;51107;47.652;19.016;2022-07-21T12:57:39;99861.50;;;36.36;18.79
64683;BME280;51107;47.652;19.016;2022-07-21T13:00:08;99855.59;;;36.17;20.15
64683;BME280;51107;47.652;19.016;2022-07-21T13:02:55;99855.94;;;36.33;20.18
64683;BME280;51107;47.652;19.016;2022-07-21T13:05:25;99853.19;;;36.24;19.56
64683;BME280;51107;47.652;19.016;2022-07-21T13:07:54;99858.16;;;36.13;19.45
64683;BME280;51107;47.652;19.016;2022-07-21T13:10:22;99861.03;;;35.99;19.36
64683;BME280;51107;47.652;19.016;2022-07-21T13:12:51;99854.66;;;35.86;20.50
64683;BME280;51107;47.652;19.016;2022-07-21T13:15:19;99855.75;;;36.20;18.70
64683;BME280;51107;47.652;19.016;2022-07-21T13:17:47;99842.06;;;35.91;19.65
64683;BME280;51107;47.652;19.016;2022-07-21T13:20:16;99844.12;;;35.94;19.38
64683;BME280;51107;47.652;19.016;2022-07-21T13:22:45;99839.03;;;35.83;20.42
64683;BME280;51107;47.652;19.016;2022-07-21T13:25:13;99841.87;;;35.87;20.35
64683;BME280;51107;47.652;19.016;2022-07-21T13:27:42;99841.56;;;35.71;20.04
64683;BME280;51107;47.652;19.016;2022-07-21T13:30:16;99842.97;;;35.77;19.31
64683;BME280;51107;47.652;19.016;2022-07-21T13:32:44;99836.19;;;35.88;19.78
64683;BME280;51107;47.652;19.016;2022-07-21T13:35:14;99836.00;;;35.94;19.76
64683;BME280;51107;47.652;19.016;2022-07-21T13:37:55;99833.44;;;36.15;20.00
64683;BME280;51107;47.652;19.016;2022-07-21T13:40:25;99831.84;;;36.14;19.57
64683;BME280;51107;47.652;19.016;2022-07-21T13:43:14;99833.13;;;35.99;19.29